Terminal Aerodrome Forecast
Issued by NWS Pueblo, CO

Home | Current Version | Previous Version | Text Only | Print | Product List | Glossary On
Versions: 1 2 3 4 5 6 7 8 9 10 11 12 13 14 15 16 17 18 19 20 21 22 23 24 25 26 27 28 29 30 31 32 33 34
000
FTUS45 KPUB 280527
TAFALS
TAF
KALS 280527Z 2806/0106 16010KT P6SM SCT040 BKN090
     FM281000 18015G25KT P6SM VCSH BKN040
     FM281700 23020G30KT P6SM VCSH SCT040 BKN090
     FM282200 28025G35KT P6SM SCT090 BKN140
     FM010200 33012KT P6SM SCT140 SCT250=

USA.gov is the U.S. government's official web portal to all federal, state and local government web resources and services.